Time;durP1;ratioP1;P1;durP2;ratioP2;P2;SDS_P1;SDS_P2;PMS_P1;PMS_P2;Temp;Humidity;BMP_temperature;BMP_pressure;BME280_temperature;BME280_humidity;BME280_pressure;Samples;Min_cycle;Max_cycle;Signal;HPM_P1;HPM_P2
2021/04/17 00:01:22;;;;;;;19.38;7.88;;;;;;;6.70;57.60;102767.44;4984660;28;20081;-74
2021/04/17 00:03:48;;;;;;;21.00;8.02;;;;;;;6.68;57.14;102765.78;4996001;28;20145;-74
2021/04/17 00:06:14;;;;;;;20.05;7.93;;;;;;;6.64;57.28;102756.41;5001764;28;20061;-74
2021/04/17 00:08:40;;;;;;;18.25;7.25;;;;;;;6.63;57.24;102754.75;4997386;28;20054;-74
2021/04/17 00:11:07;;;;;;;16.33;7.63;;;;;;;6.65;56.79;102758.13;5000296;28;20733;-74
2021/04/17 00:13:33;;;;;;;22.75;7.93;;;;;;;6.60;57.58;102755.72;5004151;28;20127;-74
2021/04/17 00:15:59;;;;;;;23.40;8.48;;;;;;;6.56;57.42;102761.16;4981482;28;20096;-74
2021/04/17 00:18:25;;;;;;;20.38;7.88;;;;;;;6.55;57.40;102757.72;4988320;28;20064;-74
2021/04/17 00:20:51;;;;;;;20.40;8.80;;;;;;;6.57;57.22;102761.09;4999241;28;20139;-73
2021/04/17 00:23:17;;;;;;;20.95;7.85;;;;;;;6.57;57.74;102762.88;4986251;28;20104;-74
2021/04/17 00:25:43;;;;;;;27.25;7.47;;;;;;;6.52;57.43;102763.06;4987161;28;20058;-74
2021/04/17 00:28:10;;;;;;;23.60;8.25;;;;;;;6.49;57.46;102763.22;4991392;28;20088;-73
2021/04/17 00:30:36;;;;;;;18.75;7.32;;;;;;;6.49;57.00;102761.47;4998964;28;20820;-74
2021/04/17 00:33:02;;;;;;;17.55;7.20;;;;;;;6.45;57.52;102753.84;4983883;28;20058;-75
2021/04/17 00:35:29;;;;;;;16.15;7.43;;;;;;;6.34;58.04;102756.97;5004424;28;20085;-75
2021/04/17 00:37:55;;;;;;;21.20;7.47;;;;;;;6.34;57.65;102743.94;4983741;28;20890;-74
2021/04/17 00:40:21;;;;;;;18.73;7.15;;;;;;;6.41;58.04;102754.91;4978167;28;20053;-75
2021/04/17 00:42:47;;;;;;;24.33;8.07;;;;;;;6.25;57.74;102740.00;5018151;28;20079;-75
2021/04/17 00:45:13;;;;;;;20.40;8.50;;;;;;;6.32;57.91;102746.59;4994516;28;20678;-75
2021/04/17 00:47:41;;;;;;;21.85;7.60;;;;;;;6.25;58.20;102741.72;4995018;28;20111;-74
2021/04/17 00:50:08;;;;;;;21.83;7.57;;;;;;;6.30;57.90;102745.81;4983296;28;20490;-74
2021/04/17 00:52:35;;;;;;;21.02;8.32;;;;;;;6.21;58.63;102740.19;4992130;28;20080;-74
2021/04/17 00:55:02;;;;;;;22.10;7.93;;;;;;;6.23;58.41;102747.00;4991907;28;20054;-73
2021/04/17 00:57:28;;;;;;;22.73;8.43;;;;;;;6.22;58.47;102745.34;4982797;28;20767;-73
2021/04/17 00:59:54;;;;;;;18.23;7.30;;;;;;;6.20;57.66;102744.56;4974616;28;20054;-74
2021/04/17 01:02:34;;;;;;;22.98;7.70;;;;;;;6.17;57.73;102738.66;5001102;28;20403;-73
2021/04/17 01:05:03;;;;;;;19.08;6.68;;;;;;;6.13;58.56;102735.34;5000865;28;20064;-74
2021/04/17 01:07:37;;;;;;;15.32;6.63;;;;;;;6.11;58.74;102747.59;4992758;28;20124;-74
2021/04/17 01:10:09;;;;;;;19.17;6.82;;;;;;;6.06;58.43;102744.38;5002918;28;20616;-74
2021/04/17 01:12:39;;;;;;;20.83;7.38;;;;;;;6.05;58.46;102745.25;4996215;28;20509;-73
2021/04/17 01:15:07;;;;;;;20.50;6.75;;;;;;;5.99;58.42;102730.75;5005177;28;20120;-73
2021/04/17 01:17:34;;;;;;;22.67;6.70;;;;;;;5.94;58.75;102733.53;4997339;28;20049;-73
2021/04/17 01:20:01;;;;;;;21.00;7.07;;;;;;;5.96;58.76;102733.50;4995744;28;20058;-73
2021/04/17 01:22:28;;;;;;;17.33;7.45;;;;;;;5.95;58.73;102739.63;5000749;28;20448;-74
2021/04/17 01:25:03;;;;;;;17.20;7.70;;;;;;;5.94;58.81;102738.75;4996715;28;20642;-74
2021/04/17 01:27:30;;;;;;;20.40;6.72;;;;;;;5.94;58.87;102738.75;5003070;28;20057;-74
2021/04/17 01:29:57;;;;;;;17.70;6.45;;;;;;;5.95;58.42;102734.41;4978738;28;20065;-73
2021/04/17 01:32:24;;;;;;;22.50;7.07;;;;;;;5.96;58.82;102733.50;4979938;28;20049;-73
2021/04/17 01:34:51;;;;;;;17.30;6.93;;;;;;;5.92;58.54;102730.16;4995006;28;20061;-74
2021/04/17 01:37:20;;;;;;;15.35;6.05;;;;;;;5.93;59.02;102729.22;4997007;28;20053;-76
2021/04/17 01:39:46;;;;;;;16.20;6.80;;;;;;;5.96;59.38;102727.44;4986957;28;20180;-76
2021/04/17 01:42:15;;;;;;;17.60;6.18;;;;;;;5.92;59.11;102735.38;4996121;28;20054;-74
2021/04/17 01:44:47;;;;;;;19.60;7.53;;;;;;;5.87;59.28;102729.50;5007510;28;20054;-74
2021/04/17 01:47:15;;;;;;;16.30;6.18;;;;;;;5.83;59.10;102735.78;4990992;28;20104;-75
2021/04/17 01:49:45;;;;;;;14.23;6.80;;;;;;;5.78;59.65;102724.72;5004481;28;20101;-74
2021/04/17 01:52:14;;;;;;;22.25;7.22;;;;;;;5.73;59.34;102724.94;4997477;28;20765;-74
2021/04/17 01:54:43;;;;;;;;;;;;;;;5.80;59.31;102740.28;4987026;28;20061;-74
2021/04/17 01:57:13;;;;;;;15.38;6.13;;;;;;;5.71;60.10;102728.53;4985051;28;19925;-75
2021/04/17 01:59:39;;;;;;;18.02;6.53;;;;;;;5.68;60.43;102734.69;5000830;28;20105;-75
2021/04/17 02:02:06;;;;;;;17.52;6.70;;;;;;;5.66;59.97;102735.69;4982241;28;20085;-75
2021/04/17 02:04:34;;;;;;;22.90;6.72;;;;;;;5.64;60.30;102729.69;4960132;28;20174;-75
2021/04/17 02:07:01;;;;;;;15.68;6.22;;;;;;;5.63;60.24;102733.22;4984189;28;20082;-75
2021/04/17 02:09:27;;;;;;;18.73;6.47;;;;;;;5.63;59.83;102735.84;4978686;28;20581;-75
2021/04/17 02:11:53;;;;;;;13.70;6.00;;;;;;;5.64;60.12;102732.28;4989649;28;20061;-75
2021/04/17 02:14:19;;;;;;;15.65;6.03;;;;;;;5.60;60.43;102723.78;4994451;28;20140;-75
2021/04/17 02:16:54;;;;;;;16.00;6.25;;;;;;;5.55;60.58;102718.78;5002867;28;20050;-76
2021/04/17 02:19:54;;;;;;;18.08;6.60;;;;;;;5.58;60.59;102735.16;4984131;28;20054;-76
2021/04/17 02:22:22;;;;;;;12.43;5.43;;;;;;;5.57;60.36;102726.53;4976375;28;20056;-75
2021/04/17 02:24:49;;;;;;;17.23;6.47;;;;;;;5.53;60.83;102728.41;5004371;28;20116;-75
2021/04/17 02:27:16;;;;;;;13.45;6.57;;;;;;;5.54;60.20;102730.09;4991777;28;20573;-75
2021/04/17 02:29:42;;;;;;;16.27;6.75;;;;;;;5.50;60.99;102725.94;4999150;28;20449;-75
2021/04/17 02:32:15;;;;;;;19.92;7.70;;;;;;;5.48;61.03;102714.75;4998537;28;20510;-75
2021/04/17 02:34:42;;;;;;;13.77;5.75;;;;;;;5.48;60.72;102726.91;4984144;28;20060;-75
2021/04/17 02:37:09;;;;;;;13.95;5.45;;;;;;;5.45;61.28;102720.09;4996906;28;20115;-74
2021/04/17 02:39:35;;;;;;;16.70;6.50;;;;;;;5.47;61.51;102726.06;4999175;28;20469;-74
2021/04/17 02:42:02;;;;;;;17.92;6.45;;;;;;;5.44;61.51;102722.75;4983653;28;20054;-74
2021/04/17 02:44:28;;;;;;;17.33;6.32;;;;;;;5.38;61.67;102720.44;4996319;28;20119;-74
2021/04/17 02:46:54;;;;;;;17.20;6.22;;;;;;;5.38;61.61;102723.03;5003270;28;20054;-76
2021/04/17 02:49:21;;;;;;;17.20;6.00;;;;;;;5.32;61.94;102719.75;4964658;28;20438;-75
2021/04/17 02:51:47;;;;;;;18.00;6.03;;;;;;;5.26;61.50;102714.81;4996693;28;20073;-78
2021/04/17 02:54:13;;;;;;;17.98;6.20;;;;;;;5.35;61.67;102727.44;4984568;28;20053;-77
2021/04/17 02:56:39;;;;;;;16.52;5.82;;;;;;;5.35;62.45;102726.59;5004907;28;20054;-77
2021/04/17 02:59:05;;;;;;;19.15;5.65;;;;;;;5.34;62.36;102719.69;4993271;28;20092;-77
2021/04/17 03:01:32;;;;;;;15.10;5.63;;;;;;;5.40;61.86;102729.00;5004142;28;20053;-78
2021/04/17 03:03:58;;;;;;;13.45;6.07;;;;;;;5.35;62.09;102722.25;4991860;28;20117;-77
2021/04/17 03:06:24;;;;;;;25.00;6.60;;;;;;;5.28;62.79;102718.22;4978947;28;20056;-77
2021/04/17 03:08:50;;;;;;;21.95;6.25;;;;;;;5.29;62.04;102722.50;5003728;28;20053;-77
2021/04/17 03:11:16;;;;;;;12.63;5.55;;;;;;;5.30;62.31;102720.75;5004417;28;20476;-77
2021/04/17 03:13:42;;;;;;;18.02;5.78;;;;;;;5.32;61.92;102727.56;5007450;28;20054;-77
2021/04/17 03:16:08;;;;;;;18.52;5.32;;;;;;;5.25;62.90;102720.09;4991168;28;20478;-77
2021/04/17 03:18:34;;;;;;;12.50;5.20;;;;;;;5.28;62.70;102733.81;5002501;28;20093;-77
2021/04/17 03:21:02;;;;;;;13.52;5.70;;;;;;;5.20;63.13;102714.25;5017462;28;20050;-77
2021/04/17 03:23:28;;;;;;;16.10;5.72;;;;;;;5.21;63.09;102721.13;4996696;28;20867;-78
2021/04/17 03:25:54;;;;;;;14.35;5.85;;;;;;;5.17;63.69;102717.81;5004705;28;20054;-77
2021/04/17 03:28:20;;;;;;;13.90;5.28;;;;;;;5.15;63.15;102710.09;4999407;28;20494;-76
2021/04/17 03:30:46;;;;;;;16.95;5.90;;;;;;;5.13;63.43;102714.47;4985174;28;20049;-77
2021/04/17 03:33:12;;;;;;;17.02;5.53;;;;;;;5.11;63.76;102712.88;5003302;28;20132;-77
2021/04/17 03:35:38;;;;;;;13.05;5.95;;;;;;;5.09;63.38;102719.91;4995716;28;20057;-77
2021/04/17 03:38:04;;;;;;;12.57;5.43;;;;;;;5.08;64.09;102713.00;5004796;28;20068;-77
2021/04/17 03:40:32;;;;;;;15.05;5.72;;;;;;;5.03;64.11;102713.19;5008149;28;20041;-77
2021/04/17 03:42:58;;;;;;;17.45;5.55;;;;;;;5.04;64.36;102709.69;5014922;28;20065;-77
2021/04/17 03:45:25;;;;;;;18.23;6.43;;;;;;;5.00;64.71;102715.94;4984986;28;20064;-77
2021/04/17 03:47:51;;;;;;;12.50;5.85;;;;;;;5.00;65.09;102717.66;5003488;28;20391;-77
2021/04/17 03:50:18;;;;;;;16.73;5.53;;;;;;;5.02;64.69;102727.13;4989756;28;20061;-77
2021/04/17 03:52:45;;;;;;;13.93;5.18;;;;;;;4.94;64.62;102709.22;4992783;28;20077;-77
2021/04/17 03:55:14;;;;;;;13.35;5.22;;;;;;;4.92;65.04;102713.66;5001708;28;20482;-77
2021/04/17 03:57:41;;;;;;;17.48;5.28;;;;;;;4.95;65.58;102716.09;4973928;28;20058;-76
2021/04/17 04:00:10;;;;;;;15.93;5.50;;;;;;;4.98;65.45;102722.09;5007254;28;20107;-76
2021/04/17 04:02:36;;;;;;;15.68;5.38;;;;;;;4.93;65.60;102714.47;5003122;28;20057;-77
2021/04/17 04:05:05;;;;;;;18.25;5.68;;;;;;;4.96;65.34;102724.78;4995564;28;20061;-77
2021/04/17 04:07:31;;;;;;;14.68;5.28;;;;;;;4.95;65.14;102716.09;4996513;28;20299;-77
2021/04/17 04:09:57;;;;;;;14.60;4.78;;;;;;;4.94;65.33;102726.59;4990606;28;20078;-77
2021/04/17 04:12:23;;;;;;;13.20;5.47;;;;;;;4.98;65.56;102719.50;5011858;28;20492;-77
2021/04/17 04:14:49;;;;;;;10.82;4.93;;;;;;;4.95;65.23;102728.28;5005776;28;20049;-77
2021/04/17 04:17:15;;;;;;;15.75;5.25;;;;;;;4.92;65.73;102729.25;4991826;28;20541;-77
2021/04/17 04:19:41;;;;;;;15.15;5.53;;;;;;;4.94;65.61;102727.44;4994253;28;20600;-77
2021/04/17 04:22:07;;;;;;;18.77;5.28;;;;;;;4.97;65.83;102728.22;5000548;28;20058;-77
2021/04/17 04:24:33;;;;;;;18.38;5.40;;;;;;;4.98;66.51;102733.34;5004543;28;20053;-77
2021/04/17 04:26:59;;;;;;;15.98;5.32;;;;;;;4.95;66.01;102728.28;4979588;28;20089;-77
2021/04/17 04:29:25;;;;;;;17.75;5.75;;;;;;;4.98;65.84;102741.16;4985250;28;20053;-77
2021/04/17 04:31:51;;;;;;;13.88;5.32;;;;;;;4.88;66.59;102725.09;4998315;28;20057;-77
2021/04/17 04:34:18;;;;;;;14.52;5.25;;;;;;;4.93;66.44;102732.69;4987770;28;20450;-77
2021/04/17 04:36:44;;;;;;;12.13;5.38;;;;;;;4.93;66.42;102738.72;4984645;28;20057;-77
2021/04/17 04:39:10;;;;;;;15.57;5.35;;;;;;;4.92;66.36;102734.44;4983131;28;20081;-78
2021/04/17 04:41:36;;;;;;;21.83;5.82;;;;;;;4.94;66.05;102737.84;5000759;28;20054;-78
2021/04/17 04:44:03;;;;;;;17.05;5.10;;;;;;;4.92;66.72;102737.06;5001859;28;20127;-78
2021/04/17 04:46:30;;;;;;;14.27;5.28;;;;;;;4.92;66.70;102730.97;5006645;28;20401;-78
2021/04/17 04:48:57;;;;;;;16.98;5.93;;;;;;;4.90;66.54;102733.66;5001311;28;20054;-77
2021/04/17 04:51:24;;;;;;;15.68;5.57;;;;;;;4.93;66.52;102740.50;5006873;28;20060;-77
2021/04/17 04:53:51;;;;;;;12.80;5.10;;;;;;;4.87;66.84;102731.19;4975855;28;20525;-77
2021/04/17 04:56:17;;;;;;;12.02;5.07;;;;;;;4.86;66.92;102733.84;5006148;28;20107;-77
2021/04/17 04:58:43;;;;;;;19.17;5.47;;;;;;;4.84;66.82;102733.91;4977753;28;20941;-77
2021/04/17 05:01:09;;;;;;;12.75;5.35;;;;;;;4.78;67.12;102720.31;5001935;28;20437;-78
2021/04/17 05:03:35;;;;;;;20.55;5.72;;;;;;;4.80;67.94;102731.50;5020395;28;20136;-78
2021/04/17 05:06:01;;;;;;;9.43;5.25;;;;;;;4.82;67.66;102730.53;4989187;28;20061;-77
2021/04/17 05:08:27;;;;;;;11.18;5.10;;;;;;;4.80;68.11;102737.53;4983277;28;20423;-77
2021/04/17 05:10:54;;;;;;;18.13;5.45;;;;;;;4.85;67.89;102733.00;4986639;28;20660;-77
2021/04/17 05:13:20;;;;;;;12.23;5.25;;;;;;;4.86;68.07;102734.72;5005329;28;20057;-78
2021/04/17 05:15:46;;;;;;;13.05;4.80;;;;;;;4.86;68.28;102723.44;4989537;28;20128;-77
2021/04/17 05:18:12;;;;;;;16.27;5.70;;;;;;;4.90;68.51;102733.66;4997308;28;20131;-77
2021/04/17 05:20:38;;;;;;;14.27;5.88;;;;;;;4.97;68.07;102742.06;4994131;28;20057;-76
2021/04/17 05:23:04;;;;;;;20.58;6.43;;;;;;;4.95;68.61;102731.72;4977967;28;20053;-78
2021/04/17 05:25:30;;;;;;;19.40;5.65;;;;;;;4.92;69.21;102729.25;5003912;28;20053;-77
2021/04/17 05:27:56;;;;;;;22.58;6.47;;;;;;;4.94;69.12;102731.78;4981869;28;20304;-77
2021/04/17 05:30:22;;;;;;;17.75;6.20;;;;;;;4.95;68.96;102723.91;5002534;28;20046;-77
2021/04/17 05:32:48;;;;;;;13.23;5.78;;;;;;;4.99;69.08;102726.38;5004310;28;20125;-77
2021/04/17 05:35:15;;;;;;;14.70;6.68;;;;;;;5.01;69.61;102722.81;4995796;28;20693;-77
2021/04/17 05:37:41;;;;;;;18.10;6.68;;;;;;;5.01;69.61;102725.41;4984836;28;20124;-77
2021/04/17 05:40:08;;;;;;;21.17;5.80;;;;;;;5.03;69.07;102725.34;4999811;28;20045;-76
2021/04/17 05:42:34;;;;;;;12.07;5.35;;;;;;;5.07;69.34;102730.34;4986627;28;20084;-76
2021/04/17 05:45:00;;;;;;;12.38;5.30;;;;;;;5.06;69.82;102733.88;4980770;28;20054;-76
2021/04/17 05:47:26;;;;;;;14.57;5.03;;;;;;;5.10;69.03;102732.84;5003396;28;20049;-76
2021/04/17 05:49:52;;;;;;;11.95;5.72;;;;;;;5.11;69.64;102729.31;4996972;28;20057;-76
2021/04/17 05:52:18;;;;;;;17.95;5.07;;;;;;;5.15;69.20;102735.25;4981783;28;20091;-76
2021/04/17 05:54:45;;;;;;;13.07;5.50;;;;;;;5.16;69.55;102731.75;5005112;28;20069;-76
2021/04/17 05:57:11;;;;;;;16.33;5.38;;;;;;;5.21;68.72;102724.56;4998820;28;20399;-76
2021/04/17 05:59:37;;;;;;;17.23;5.70;;;;;;;5.24;69.14;102726.22;5002624;28;20576;-76
2021/04/17 06:02:03;;;;;;;11.63;5.07;;;;;;;5.29;69.26;102732.91;4993984;28;20049;-76
2021/04/17 06:04:29;;;;;;;14.70;5.05;;;;;;;5.31;69.22;102733.69;5000588;28;20054;-76
2021/04/17 06:06:55;;;;;;;13.05;5.35;;;;;;;5.30;69.85;102726.78;4998622;28;20104;-76
2021/04/17 06:09:21;;;;;;;13.02;4.78;;;;;;;5.38;69.79;102736.03;5005693;28;20062;-76
2021/04/17 06:11:47;;;;;;;13.60;4.88;;;;;;;5.35;69.49;102724.84;4985279;28;20089;-76
2021/04/17 06:14:14;;;;;;;14.30;4.63;;;;;;;5.47;69.12;102731.28;4987008;28;20955;-76
2021/04/17 06:16:39;;;;;;;13.10;4.72;;;;;;;5.46;68.83;102726.97;5009765;28;20054;-76
2021/04/17 06:19:06;;;;;;;14.02;5.03;;;;;;;5.53;69.43;102738.00;4993741;28;20058;-76
2021/04/17 06:21:34;;;;;;;20.48;4.97;;;;;;;5.58;69.33;102737.78;5003695;28;20049;-76
2021/04/17 06:24:00;;;;;;;9.35;3.92;;;;;;;5.62;69.07;102732.34;4991392;28;20112;-77
2021/04/17 06:26:26;;;;;;;13.77;4.20;;;;;;;5.65;68.87;102727.03;4998049;28;20054;-76
2021/04/17 06:28:52;;;;;;;10.38;3.97;;;;;;;5.73;68.52;102734.50;4983043;28;20054;-76
2021/04/17 06:31:18;;;;;;;8.45;3.75;;;;;;;5.75;68.35;102735.28;4975656;28;20054;-76
2021/04/17 06:33:45;;;;;;;12.45;4.32;;;;;;;5.75;68.93;102733.50;4983748;28;20061;-76
2021/04/17 06:36:11;;;;;;;14.40;3.55;;;;;;;5.81;67.98;102731.56;4998485;28;20085;-76
2021/04/17 06:38:38;;;;;;;16.23;4.32;;;;;;;5.84;67.94;102734.88;4990104;28;20445;-76
2021/04/17 06:41:07;;;;;;;10.80;4.03;;;;;;;5.88;67.79;102738.16;4998113;28;20053;-76
2021/04/17 06:43:40;;;;;;;14.30;4.97;;;;;;;5.90;67.78;102737.19;4998861;28;20102;-76
2021/04/17 06:46:07;;;;;;;17.48;5.47;;;;;;;5.88;67.79;102726.00;4995641;28;20058;-76
2021/04/17 06:48:38;;;;;;;12.85;3.88;;;;;;;5.92;67.73;102727.56;4989681;28;20128;-76
2021/04/17 06:51:14;;;;;;;9.95;3.92;;;;;;;6.02;66.84;102732.38;5007978;28;20477;-77
2021/04/17 06:53:42;;;;;;;14.82;4.43;;;;;;;6.10;67.38;102725.91;5001942;28;20058;-75
2021/04/17 06:56:09;;;;;;;15.48;3.70;;;;;;;6.14;67.21;102722.25;4994409;28;20128;-76
2021/04/17 06:58:37;;;;;;;15.30;3.83;;;;;;;6.14;67.03;102724.84;5002803;28;20061;-76
2021/04/17 07:01:03;;;;;;;8.43;3.28;;;;;;;6.17;66.07;102726.44;4982681;28;20054;-76
2021/04/17 07:03:30;;;;;;;15.73;3.97;;;;;;;6.24;66.26;102724.44;5000703;28;20149;-76
2021/04/17 07:05:56;;;;;;;11.05;4.00;;;;;;;6.31;66.05;102726.69;5014131;28;20145;-76
2021/04/17 07:08:22;;;;;;;12.05;3.63;;;;;;;6.34;65.65;102726.50;5006841;28;20049;-77
2021/04/17 07:10:48;;;;;;;13.02;3.72;;;;;;;6.39;65.22;102723.72;5000677;28;20053;-76
2021/04/17 07:13:16;;;;;;;9.75;4.00;;;;;;;6.44;65.17;102724.31;4981207;28;20054;-76
2021/04/17 07:15:44;;;;;;;25.77;4.82;;;;;;;6.51;64.62;102725.72;5004248;28;20050;-76
2021/04/17 07:18:25;;;;;;;11.68;3.83;;;;;;;6.53;64.03;102723.88;4984392;28;20065;-76
2021/04/17 07:20:56;;;;;;;14.55;3.83;;;;;;;6.60;63.53;102721.81;5002627;28;20686;-76
2021/04/17 07:23:31;;;;;;;12.60;3.88;;;;;;;6.64;62.95;102728.56;4980319;28;20082;-77
2021/04/17 07:26:10;;;;;;;12.90;3.90;;;;;;;6.68;63.21;102721.44;4999160;28;20053;-77
2021/04/17 07:28:37;;;;;;;14.30;3.15;;;;;;;6.76;62.68;102724.53;4976915;28;20647;-75
2021/04/17 07:31:05;;;;;;;14.67;3.80;;;;;;;6.82;63.03;102718.16;5002293;28;20513;-75
2021/04/17 07:33:32;;;;;;;8.20;3.25;;;;;;;6.85;62.05;102718.88;4986993;28;20283;-76
2021/04/17 07:36:00;;;;;;;14.30;3.65;;;;;;;6.92;62.12;102730.69;4986600;28;20398;-76
2021/04/17 07:38:35;;;;;;;7.45;3.40;;;;;;;6.93;61.49;102719.31;4995676;28;20050;-76
2021/04/17 07:41:17;;;;;;;8.57;3.55;;;;;;;7.02;61.45;102717.19;4999654;28;20053;-76
2021/04/17 07:44:02;;;;;;;19.27;4.45;;;;;;;7.09;60.72;102724.63;4983403;28;20053;-76
2021/04/17 07:46:41;;;;;;;17.80;3.60;;;;;;;7.15;60.39;102715.63;4967181;28;20077;-75
2021/04/17 07:49:18;;;;;;;10.05;3.40;;;;;;;7.19;59.58;102721.56;4994169;28;20074;-76
2021/04/17 07:52:10;;;;;;;13.07;3.60;;;;;;;7.25;59.58;102724.72;4975492;28;20193;-76
2021/04/17 07:55:00;;;;;;;13.35;3.42;;;;;;;7.25;58.71;102708.19;4992084;28;20450;-76
2021/04/17 07:57:37;;;;;;;15.60;3.72;;;;;;;7.36;57.60;102715.50;4981582;28;20618;-76
2021/04/17 08:00:15;;;;;;;13.50;3.85;;;;;;;7.41;58.23;102710.84;4992988;28;20483;-75
2021/04/17 08:02:46;;;;;;;12.00;3.92;;;;;;;7.44;57.88;102703.72;4982356;28;20058;-77
2021/04/17 08:05:13;;;;;;;15.20;3.42;;;;;;;7.67;58.11;102706.91;5002431;28;20908;-75
2021/04/17 08:07:40;;;;;;;9.18;3.20;;;;;;;7.88;57.12;102710.97;4991072;28;20049;-75
2021/04/17 08:10:11;;;;;;;13.90;4.28;;;;;;;8.22;56.89;102711.75;5003179;28;20151;-76
2021/04/17 08:12:41;;;;;;;15.90;4.20;;;;;;;8.50;55.69;102699.78;5001605;28;20100;-77
2021/04/17 08:15:12;;;;;;;16.17;3.60;;;;;;;8.87;54.81;102710.75;5002744;28;20490;-77
2021/04/17 08:17:40;;;;;;;14.65;3.58;;;;;;;9.22;54.61;102708.69;4986598;28;20462;-77
2021/04/17 08:20:08;;;;;;;17.23;3.50;;;;;;;9.47;52.26;102704.59;4996560;28;20054;-77
2021/04/17 08:22:35;;;;;;;16.58;3.40;;;;;;;9.76;52.34;102701.94;5000275;28;20053;-76
2021/04/17 08:25:02;;;;;;;8.70;2.90;;;;;;;9.95;49.83;102693.78;4998335;28;20061;-77
2021/04/17 08:27:30;;;;;;;9.73;3.17;;;;;;;10.21;50.07;102700.84;5002323;28;20061;-77
2021/04/17 08:29:57;;;;;;;9.93;3.88;;;;;;;10.50;49.60;102698.16;4988140;28;20057;-75
2021/04/17 08:32:31;;;;;;;8.48;3.58;;;;;;;10.65;47.73;102698.94;5006444;28;20081;-77
2021/04/17 08:35:06;;;;;;;8.60;3.10;;;;;;;10.88;47.49;102692.19;4984784;28;20115;-75
2021/04/17 08:37:35;;;;;;;12.40;3.10;;;;;;;11.07;47.30;102691.75;4999246;28;20053;-75
2021/04/17 08:40:03;;;;;;;9.73;2.97;;;;;;;11.32;47.47;102687.47;5001737;28;20057;-76
2021/04/17 08:42:45;;;;;;;15.93;3.42;;;;;;;11.46;45.99;102689.97;4968677;28;20484;-76
2021/04/17 08:45:19;;;;;;;12.07;3.38;;;;;;;11.73;46.06;102689.00;4996021;28;20056;-76
2021/04/17 08:47:56;;;;;;;10.05;3.03;;;;;;;11.88;45.85;102686.13;5009424;28;20781;-77
2021/04/17 08:50:37;;;;;;;12.68;3.17;;;;;;;11.97;44.07;102681.19;4984433;28;20054;-77
2021/04/17 08:53:17;;;;;;;11.73;3.20;;;;;;;12.11;44.49;102675.75;4981860;28;20058;-76
2021/04/17 08:55:48;;;;;;;11.65;3.33;;;;;;;12.22;42.40;102685.50;4994784;28;20494;-77
2021/04/17 08:58:23;;;;;;;13.23;3.10;;;;;;;12.38;43.09;102675.53;5001897;28;20054;-76
2021/04/17 09:00:52;;;;;;;13.80;3.70;;;;;;;12.54;42.12;102674.41;4984711;28;20837;-77
2021/04/17 09:03:40;;;;;;;10.02;3.47;;;;;;;12.61;41.19;102673.00;4990121;28;20060;-76
2021/04/17 09:06:29;;;;;;;11.20;3.25;;;;;;;12.79;41.50;102668.16;4968691;28;20149;-76
2021/04/17 09:09:17;;;;;;;12.30;3.55;;;;;;;12.91;39.59;102667.22;4984942;28;20057;-76
2021/04/17 09:11:45;;;;;;;12.27;3.92;;;;;;;13.09;40.30;102672.88;4985532;28;20464;-75
2021/04/17 09:14:26;;;;;;;11.07;2.90;;;;;;;13.25;40.88;102667.28;4994006;28;20104;-80
2021/04/17 09:17:00;;;;;;;8.60;3.08;;;;;;;13.36;38.83;102662.03;4985071;28;21321;-75
2021/04/17 09:19:39;;;;;;;11.98;3.70;;;;;;;13.53;38.63;102662.53;4993242;28;20050;-74
2021/04/17 09:22:24;;;;;;;12.50;3.40;;;;;;;13.67;38.68;102658.78;4998512;28;20123;-75
2021/04/17 09:25:14;;;;;;;6.70;3.25;;;;;;;13.77;38.74;102647.38;4995461;28;20090;-75
2021/04/17 09:27:43;;;;;;;10.68;2.80;;;;;;;13.86;37.52;102637.91;4999933;28;20053;-76
2021/04/17 09:30:19;;;;;;;11.50;3.58;;;;;;;14.01;37.13;102649.84;4998355;28;20096;-76
2021/04/17 09:32:56;;;;;;;10.27;3.28;;;;;;;14.17;36.57;102643.31;4986899;28;20580;-76
2021/04/17 09:35:36;;;;;;;13.48;3.58;;;;;;;14.28;36.86;102637.16;5006811;28;20049;-76
2021/04/17 09:38:04;;;;;;;10.00;3.35;;;;;;;14.41;35.31;102641.28;5005863;28;20070;-75
2021/04/17 09:40:44;;;;;;;8.90;3.45;;;;;;;14.54;35.19;102633.16;5005575;28;20140;-76
2021/04/17 09:43:33;;;;;;;8.35;3.08;;;;;;;14.71;34.74;102645.00;5002132;28;20057;-76
2021/04/17 09:46:15;;;;;;;10.30;3.67;;;;;;;14.86;35.49;102639.38;4981767;28;20116;-76
2021/04/17 09:48:43;;;;;;;11.90;3.45;;;;;;;15.01;36.00;102631.00;5007226;28;20105;-76
2021/04/17 09:51:25;;;;;;;10.20;3.33;;;;;;;15.03;35.34;102644.94;4999720;28;20058;-76
2021/04/17 09:53:59;;;;;;;11.60;3.78;;;;;;;14.94;34.72;102643.06;5001781;28;20852;-76
2021/04/17 09:56:38;;;;;;;11.82;3.35;;;;;;;14.67;35.13;102632.19;4990864;28;20058;-76
2021/04/17 09:59:09;;;;;;;14.30;3.85;;;;;;;14.60;33.80;102629.22;4982689;28;20058;-76
2021/04/17 10:01:36;;;;;;;10.63;3.47;;;;;;;14.49;34.75;102619.53;4993456;28;20051;-76
2021/04/17 10:04:03;;;;;;;9.85;3.33;;;;;;;14.60;35.41;102621.28;4998370;28;20483;-76
2021/04/17 10:06:37;;;;;;;10.40;3.75;;;;;;;14.91;36.04;102622.19;4998599;28;20405;-76
2021/04/17 10:09:06;;;;;;;13.45;3.90;;;;;;;15.18;36.39;102615.50;4981891;28;20218;-76
2021/04/17 10:11:34;;;;;;;13.85;3.45;;;;;;;15.18;35.24;102610.22;5002997;28;20053;-76
2021/04/17 10:14:01;;;;;;;13.10;4.43;;;;;;;15.52;36.08;102608.09;5004483;28;20143;-76
2021/04/17 10:16:39;;;;;;;13.30;4.13;;;;;;;15.61;35.80;102604.63;5007782;28;20050;-76
2021/04/17 10:19:13;;;;;;;11.23;3.63;;;;;;;15.95;35.39;102608.75;4996027;28;20090;-76
2021/04/17 10:21:40;;;;;;;12.43;4.00;;;;;;;16.09;35.44;102600.41;4995199;28;20061;-76
2021/04/17 10:24:36;;;;;;;12.20;3.72;;;;;;;16.26;34.97;102584.78;4998638;28;20057;-76
2021/04/17 10:27:09;;;;;;;12.40;4.57;;;;;;;16.47;34.38;102589.94;5015509;28;20053;-76
2021/04/17 10:29:47;;;;;;;12.73;3.90;;;;;;;16.58;34.88;102589.75;4983054;28;20049;-76
2021/04/17 10:32:16;;;;;;;;;;;;;;;16.67;34.62;102586.25;4997745;28;20080;-76
2021/04/17 10:34:54;;;;;;;10.38;4.13;;;;;;;16.26;35.23;102582.97;5003793;28;19936;-76
2021/04/17 10:37:25;;;;;;;11.15;4.13;;;;;;;16.17;34.93;102583.81;4997106;28;20119;-75
2021/04/17 10:40:11;;;;;;;11.65;3.72;;;;;;;16.33;33.11;102591.22;5004953;28;20474;-77
2021/04/17 10:42:54;;;;;;;10.40;3.95;;;;;;;16.43;32.61;102570.00;4996742;28;20049;-77
2021/04/17 10:45:21;;;;;;;11.70;4.30;;;;;;;16.68;33.56;102579.13;5002727;28;20057;-77
2021/04/17 10:48:09;;;;;;;16.00;3.97;;;;;;;16.81;33.94;102563.75;4978602;28;20046;-77
2021/04/17 10:50:42;;;;;;;11.57;3.95;;;;;;;16.99;33.26;102561.19;4987752;28;20136;-77
2021/04/17 10:53:13;;;;;;;11.43;4.32;;;;;;;17.19;32.78;102567.25;4979904;28;20116;-76
2021/04/17 10:55:46;;;;;;;11.82;3.88;;;;;;;17.35;31.38;102563.97;4991968;28;20132;-77
2021/04/17 10:58:19;;;;;;;11.88;4.13;;;;;;;17.54;31.31;102557.69;4997800;28;20226;-76
2021/04/17 11:00:49;;;;;;;13.05;3.97;;;;;;;17.67;31.60;102562.63;5003400;28;20120;-76
2021/04/17 11:03:16;;;;;;;9.95;4.10;;;;;;;17.80;31.22;102547.16;5005409;28;20072;-76
2021/04/17 11:05:44;;;;;;;14.48;3.60;;;;;;;17.95;31.39;102553.63;4997472;28;20057;-76
2021/04/17 11:08:11;;;;;;;10.77;3.80;;;;;;;17.94;30.56;102548.47;4998355;28;20054;-76
2021/04/17 11:10:40;;;;;;;12.40;3.85;;;;;;;18.08;30.89;102545.25;4989764;28;20049;-75
2021/04/17 11:13:06;;;;;;;14.13;4.47;;;;;;;17.75;31.13;102550.25;4979864;28;20065;-75
2021/04/17 11:15:33;;;;;;;15.15;4.25;;;;;;;17.62;31.70;102533.91;4993093;28;20049;-75
2021/04/17 11:18:18;;;;;;;12.50;4.32;;;;;;;17.91;32.55;102528.34;4999205;28;20441;-76
2021/04/17 11:20:52;;;;;;;10.30;3.50;;;;;;;18.24;31.38;102539.25;5003166;28;20053;-75
2021/04/17 11:23:38;;;;;;;13.18;4.05;;;;;;;18.41;31.76;102531.41;5002501;28;20116;-75
2021/04/17 11:26:17;;;;;;;10.77;3.97;;;;;;;18.45;30.51;102525.59;4980734;28;20065;-76
2021/04/17 11:28:46;;;;;;;12.90;3.50;;;;;;;18.07;30.71;102526.81;4978076;28;20053;-76
2021/04/17 11:31:16;;;;;;;14.95;5.40;;;;;;;17.93;30.85;102510.44;5002725;28;20050;-76
2021/04/17 11:33:44;;;;;;;9.60;3.90;;;;;;;17.60;30.42;102514.63;4999998;28;20136;-75
2021/04/17 11:36:16;;;;;;;10.43;3.83;;;;;;;17.29;31.48;102520.28;5006239;28;20089;-76